Time,TemperatureF,DewpointF,PressureIn,WindDirection,WindDirectionDegrees,WindSpeedMPH,WindSpeedGustMPH,Humidity,HourlyPrecipIn,Conditions,Clouds,dailyrainin,SoftwareType,DateUTC
2013-11-09 00:07:00,46.0,44.1,30.11,East,80,0.0,0.0,93,0.00,,,0.00,Wunderground v.1.15,2013-11-09 08:07:00,
2013-11-09 00:12:00,45.7,43.8,30.11,East,80,0.0,0.0,93,0.00,,,0.00,Wunderground v.1.15,2013-11-09 08:12:00,
2013-11-09 00:22:00,45.4,43.5,30.11,East,80,0.0,0.0,93,0.00,,,0.00,Wunderground v.1.15,2013-11-09 08:22:00,
2013-11-09 00:32:00,45.4,43.5,30.11,East,80,0.0,0.0,93,0.00,,,0.00,Wunderground v.1.15,2013-11-09 08:32:00,
2013-11-09 00:42:00,45.2,43.3,30.12,East,80,0.0,0.0,93,0.00,,,0.00,Wunderground v.1.15,2013-11-09 08:42:00,
2013-11-09 00:52:00,45.0,43.1,30.12,East,80,0.0,1.0,93,0.00,,,0.00,Wunderground v.1.15,2013-11-09 08:52:00,
2013-11-09 00:57:00,45.0,43.4,30.11,East,80,2.0,2.0,94,0.00,,,0.00,Wunderground v.1.15,2013-11-09 08:57:00,
2013-11-09 01:07:00,45.0,43.4,30.11,East,80,2.0,2.0,94,0.00,,,0.00,Wunderground v.1.15,2013-11-09 09:07:00,
2013-11-09 01:17:00,44.7,43.1,30.10,East,80,1.0,2.0,94,0.00,,,0.00,Wunderground v.1.15,2013-11-09 09:17:00,
2013-11-09 01:27:00,44.6,43.0,30.10,East,80,1.0,2.0,94,0.00,,,0.00,Wunderground v.1.15,2013-11-09 09:27:00,
2013-11-09 01:32:00,44.5,42.9,30.10,East,80,1.0,1.0,94,0.00,,,0.00,Wunderground v.1.15,2013-11-09 09:32:00,
2013-11-09 01:42:00,44.3,42.7,30.10,East,80,1.0,1.0,94,0.00,,,0.00,Wunderground v.1.15,2013-11-09 09:42:00,
2013-11-09 01:47:00,44.2,42.6,30.10,East,80,1.0,3.0,94,0.00,,,0.00,Wunderground v.1.15,2013-11-09 09:47:00,
2013-11-09 01:57:00,44.2,42.6,30.10,East,80,1.0,3.0,94,0.00,,,0.00,Wunderground v.1.15,2013-11-09 09:57:00,
2013-11-09 02:07:00,44.2,42.6,30.10,East,80,1.0,2.0,94,0.00,,,0.00,Wunderground v.1.15,2013-11-09 10:07:00,
2013-11-09 02:12:00,44.2,42.6,30.10,East,80,1.0,1.0,94,0.00,,,0.00,Wunderground v.1.15,2013-11-09 10:12:00,
2013-11-09 02:22:00,44.2,42.6,30.10,East,80,0.0,0.0,94,0.00,,,0.00,Wunderground v.1.15,2013-11-09 10:22:00,
2013-11-09 02:32:00,44.2,42.6,30.10,East,80,0.0,0.0,94,0.00,,,0.00,Wunderground v.1.15,2013-11-09 10:32:00,
2013-11-09 02:42:00,44.2,42.6,30.10,East,80,0.0,0.0,94,0.00,,,0.00,Wunderground v.1.15,2013-11-09 10:42:00,
2013-11-09 02:47:00,44.2,42.6,30.09,East,80,0.0,0.0,94,0.00,,,0.00,Wunderground v.1.15,2013-11-09 10:47:00,
2013-11-09 02:57:00,44.2,42.9,30.09,East,80,0.0,1.0,95,0.00,,,0.00,Wunderground v.1.15,2013-11-09 10:57:00,
2013-11-09 03:07:00,44.2,42.6,30.09,East,80,1.0,1.0,94,0.00,,,0.00,Wunderground v.1.15,2013-11-09 11:07:00,
2013-11-09 03:17:00,44.2,42.6,30.09,East,80,1.0,3.0,94,0.00,,,0.00,Wunderground v.1.15,2013-11-09 11:17:00,
2013-11-09 03:22:00,44.4,43.1,30.09,East,80,1.0,1.0,95,0.00,,,0.00,Wunderground v.1.15,2013-11-09 11:22:00,
2013-11-09 03:32:00,44.5,43.2,30.09,East,82,1.0,1.0,95,0.00,,,0.00,Wunderground v.1.15,2013-11-09 11:32:00,
2013-11-09 03:42:00,44.6,43.0,30.09,East,82,0.0,1.0,94,0.00,,,0.00,Wunderground v.1.15,2013-11-09 11:42:00,
2013-11-09 03:52:00,45.0,43.4,30.08,ENE,65,3.0,3.0,94,0.00,,,0.00,Wunderground v.1.15,2013-11-09 11:52:00,
2013-11-09 04:02:00,45.1,43.5,30.08,East,83,3.0,3.0,94,0.00,,,0.00,Wunderground v.1.15,2013-11-09 12:02:00,
2013-11-09 04:07:00,45.2,43.6,30.08,ENE,60,3.0,3.0,94,0.00,,,0.00,Wunderground v.1.15,2013-11-09 12:07:00,
2013-11-09 04:17:00,45.2,43.6,30.08,ENE,60,1.0,2.0,94,0.00,,,0.00,Wunderground v.1.15,2013-11-09 12:17:00,
2013-11-09 04:22:00,45.1,43.5,30.08,ENE,60,0.0,3.0,94,0.00,,,0.00,Wunderground v.1.15,2013-11-09 12:22:00,
2013-11-09 04:32:00,45.0,43.4,30.07,ENE,78,3.0,3.0,94,0.00,,,0.00,Wunderground v.1.15,2013-11-09 12:32:00,
2013-11-09 04:42:00,44.9,43.0,30.07,ENE,71,2.0,2.0,93,0.00,,,0.00,Wunderground v.1.15,2013-11-09 12:42:00,
2013-11-09 04:52:00,45.0,43.1,30.07,East,90,3.0,3.0,93,0.00,,,0.00,Wunderground v.1.15,2013-11-09 12:52:00,
2013-11-09 05:02:00,45.0,43.1,30.07,ENE,76,2.0,6.0,93,0.00,,,0.00,Wunderground v.1.15,2013-11-09 13:02:00,
2013-11-09 05:12:00,44.9,43.0,30.07,ENE,63,1.0,3.0,93,0.00,,,0.00,Wunderground v.1.15,2013-11-09 13:12:00,
2013-11-09 05:17:00,44.9,43.0,30.07,ENE,67,1.0,3.0,93,0.00,,,0.00,Wunderground v.1.15,2013-11-09 13:17:00,
2013-11-09 05:27:00,44.9,43.0,30.06,ENE,67,1.0,2.0,93,0.00,,,0.00,Wunderground v.1.15,2013-11-09 13:27:00,
2013-11-09 05:37:00,44.9,43.0,30.07,ENE,67,1.0,1.0,93,0.00,,,0.00,Wunderground v.1.15,2013-11-09 13:37:00,
2013-11-09 05:42:00,44.9,43.0,30.07,ENE,67,0.0,0.0,93,0.00,,,0.00,Wunderground v.1.15,2013-11-09 13:42:00,
2013-11-09 05:52:00,45.1,43.2,30.07,ENE,67,1.0,1.0,93,0.00,,,0.00,Wunderground v.1.15,2013-11-09 13:52:00,
2013-11-09 06:02:00,45.1,43.2,30.07,ENE,67,0.0,0.0,93,0.00,,,0.00,Wunderground v.1.15,2013-11-09 14:02:00,
2013-11-09 06:07:00,45.0,43.1,30.07,ENE,67,0.0,0.0,93,0.00,,,0.00,Wunderground v.1.15,2013-11-09 14:07:00,
2013-11-09 06:17:00,44.9,43.0,30.07,ENE,67,0.0,0.0,93,0.00,,,0.00,Wunderground v.1.15,2013-11-09 14:17:00,
2013-11-09 06:27:00,44.8,42.9,30.07,ENE,67,0.0,2.0,93,0.00,,,0.00,Wunderground v.1.15,2013-11-09 14:27:00,
2013-11-09 06:37:00,44.7,42.8,30.06,ENE,67,0.0,1.0,93,0.00,,,0.00,Wunderground v.1.15,2013-11-09 14:37:00,
2013-11-09 06:42:00,44.7,42.8,30.06,ENE,67,0.0,2.0,93,0.00,,,0.00,Wunderground v.1.15,2013-11-09 14:42:00,
2013-11-09 06:52:00,44.8,42.9,30.06,ENE,71,2.0,2.0,93,0.00,,,0.00,Wunderground v.1.15,2013-11-09 14:52:00,
2013-11-09 07:02:00,44.8,42.6,30.06,ENE,78,1.0,2.0,92,0.00,,,0.00,Wunderground v.1.15,2013-11-09 15:02:00,
2013-11-09 07:12:00,45.0,42.8,30.06,East,80,3.0,4.0,92,0.00,,,0.00,Wunderground v.1.15,2013-11-09 15:12:00,
2013-11-09 07:22:00,45.1,42.9,30.06,ENE,76,4.0,5.0,92,0.00,,,0.00,Wunderground v.1.15,2013-11-09 15:22:00,
2013-11-09 07:32:00,45.3,43.1,30.06,East,86,6.0,7.0,92,0.00,,,0.00,Wunderground v.1.15,2013-11-09 15:32:00,
2013-11-09 07:37:00,45.4,43.2,30.06,East,88,6.0,7.0,92,0.00,,,0.00,Wunderground v.1.15,2013-11-09 15:37:00,
2013-11-09 07:47:00,45.6,43.1,30.06,East,83,4.0,6.0,91,0.00,,,0.00,Wunderground v.1.15,2013-11-09 15:47:00,
2013-11-09 07:57:00,45.9,43.4,30.06,East,86,7.0,8.0,91,0.00,,,0.00,Wunderground v.1.15,2013-11-09 15:57:00,
2013-11-09 08:07:00,46.1,43.6,30.06,East,88,6.0,11.0,91,0.00,,,0.00,Wunderground v.1.15,2013-11-09 16:07:00,
2013-11-09 08:12:00,46.2,43.4,30.06,East,92,7.0,11.0,90,0.00,,,0.00,Wunderground v.1.15,2013-11-09 16:12:00,
2013-11-09 08:22:00,46.4,43.6,30.07,East,87,8.0,8.0,90,0.00,,,0.00,Wunderground v.1.15,2013-11-09 16:22:00,
2013-11-09 08:32:00,46.6,43.8,30.07,East,98,8.0,8.0,90,0.00,,,0.00,Wunderground v.1.15,2013-11-09 16:32:00,
2013-11-09 08:42:00,46.7,43.9,30.06,ENE,73,7.0,8.0,90,0.00,,,0.00,Wunderground v.1.15,2013-11-09 16:42:00,
2013-11-09 08:52:00,46.7,43.9,30.07,ENE,64,5.0,5.0,90,0.00,,,0.00,Wunderground v.1.15,2013-11-09 16:52:00,
2013-11-09 09:02:00,46.7,43.9,30.07,ENE,78,1.0,1.0,90,0.00,,,0.00,Wunderground v.1.15,2013-11-09 17:02:00,
2013-11-09 09:07:00,46.8,44.0,30.07,NE,49,2.0,2.0,90,0.00,,,0.00,Wunderground v.1.15,2013-11-09 17:07:00,
2013-11-09 09:17:00,47.0,44.2,30.07,NE,49,0.0,1.0,90,0.00,,,0.00,Wunderground v.1.15,2013-11-09 17:17:00,
2013-11-09 09:27:00,47.3,44.5,30.07,ESE,104,1.0,1.0,90,0.00,,,0.00,Wunderground v.1.15,2013-11-09 17:27:00,
2013-11-09 09:32:00,47.4,44.6,30.08,ESE,109,1.0,1.0,90,0.00,,,0.00,Wunderground v.1.15,2013-11-09 17:32:00,
2013-11-09 09:37:00,47.6,44.8,30.08,SE,135,1.0,1.0,90,0.00,,,0.00,Wunderground v.1.15,2013-11-09 17:37:00,
2013-11-09 09:47:00,48.1,45.0,30.08,SE,131,1.0,5.0,89,0.00,,,0.00,Wunderground v.1.15,2013-11-09 17:47:00,
2013-11-09 09:52:00,48.3,44.9,30.07,East,88,3.0,6.0,88,0.00,,,0.00,Wunderground v.1.15,2013-11-09 17:52:00,
2013-11-09 10:02:00,48.5,45.1,30.07,East,101,4.0,6.0,88,0.00,,,0.00,Wunderground v.1.15,2013-11-09 18:02:00,
2013-11-09 10:12:00,48.5,44.8,30.06,East,84,6.0,6.0,87,0.00,,,0.00,Wunderground v.1.15,2013-11-09 18:12:00,
2013-11-09 10:22:00,48.5,44.8,30.06,East,87,7.0,7.0,87,0.00,,,0.00,Wunderground v.1.15,2013-11-09 18:22:00,
2013-11-09 10:27:00,48.5,44.8,30.06,East,98,7.0,7.0,87,0.00,,,0.00,Wunderground v.1.15,2013-11-09 18:27:00,
2013-11-09 10:37:00,48.6,44.9,30.07,East,101,6.0,7.0,87,0.00,,,0.00,Wunderground v.1.15,2013-11-09 18:37:00,
2013-11-09 10:47:00,48.8,45.1,30.07,East,98,5.0,8.0,87,0.00,,,0.00,Wunderground v.1.15,2013-11-09 18:47:00,
2013-11-09 10:52:00,48.8,45.1,30.07,East,101,5.0,5.0,87,0.00,,,0.00,Wunderground v.1.15,2013-11-09 18:52:00,
2013-11-09 11:02:00,49.0,45.0,30.06,East,87,3.0,3.0,86,0.00,,,0.00,Wunderground v.1.15,2013-11-09 19:02:00,
2013-11-09 11:12:00,49.1,45.1,30.06,ESE,107,4.0,5.0,86,0.00,,,0.00,Wunderground v.1.15,2013-11-09 19:12:00,
2013-11-09 11:22:00,49.2,45.2,30.06,East,89,3.0,7.0,86,0.00,,,0.00,Wunderground v.1.15,2013-11-09 19:22:00,
2013-11-09 11:27:00,49.2,45.2,30.06,East,98,3.0,7.0,86,0.00,,,0.00,Wunderground v.1.15,2013-11-09 19:27:00,
2013-11-09 11:37:00,49.4,45.4,30.06,ESE,102,3.0,5.0,86,0.00,,,0.00,Wunderground v.1.15,2013-11-09 19:37:00,
2013-11-09 11:47:00,49.5,45.5,30.06,East,97,3.0,3.0,86,0.00,,,0.00,Wunderground v.1.15,2013-11-09 19:47:00,
2013-11-09 11:57:00,49.6,45.3,30.06,East,101,3.0,4.0,85,0.00,,,0.00,Wunderground v.1.15,2013-11-09 19:57:00,
2013-11-09 12:07:00,49.7,45.7,30.06,East,101,2.0,4.0,86,0.00,,,0.00,Wunderground v.1.15,2013-11-09 20:07:00,
2013-11-09 12:17:00,50.1,46.1,30.06,East,99,1.0,1.0,86,0.00,,,0.00,Wunderground v.1.15,2013-11-09 20:17:00,
2013-11-09 12:27:00,50.3,46.3,30.06,East,98,2.0,4.0,86,0.00,,,0.00,Wunderground v.1.15,2013-11-09 20:27:00,
2013-11-09 12:37:00,50.4,46.1,30.05,East,98,2.0,2.0,85,0.00,,,0.00,Wunderground v.1.15,2013-11-09 20:37:00,
2013-11-09 12:47:00,50.6,46.3,30.05,East,98,1.0,2.0,85,0.00,,,0.00,Wunderground v.1.15,2013-11-09 20:47:00,
2013-11-09 12:52:00,50.7,46.4,30.05,East,98,1.0,1.0,85,0.00,,,0.00,Wunderground v.1.15,2013-11-09 20:52:00,
2013-11-09 13:02:00,50.9,46.6,30.05,East,98,0.0,0.0,85,0.00,,,0.00,Wunderground v.1.15,2013-11-09 21:02:00,
2013-11-09 13:07:00,51.0,46.6,30.05,East,98,0.0,0.0,85,0.00,,,0.00,Wunderground v.1.15,2013-11-09 21:07:00,
2013-11-09 13:17:00,51.3,46.6,30.05,East,98,0.0,0.0,84,0.00,,,0.00,Wunderground v.1.15,2013-11-09 21:17:00,
2013-11-09 13:27:00,51.2,46.8,30.05,East,98,0.0,1.0,85,0.00,,,0.00,Wunderground v.1.15,2013-11-09 21:27:00,
2013-11-09 13:37:00,50.8,46.8,30.05,SE,124,2.0,4.0,86,0.00,,,0.00,Wunderground v.1.15,2013-11-09 21:37:00,
2013-11-09 13:47:00,50.3,46.6,30.05,SE,132,3.0,4.0,87,0.00,,,0.00,Wunderground v.1.15,2013-11-09 21:47:00,
2013-11-09 13:52:00,50.2,46.5,30.05,SE,132,3.0,3.0,87,0.00,,,0.00,Wunderground v.1.15,2013-11-09 21:52:00,
2013-11-09 13:57:00,50.1,46.7,30.05,SE,132,3.0,4.0,88,0.00,,,0.00,Wunderground v.1.15,2013-11-09 21:57:00,
2013-11-09 14:07:00,50.1,46.7,30.05,SE,132,2.0,2.0,88,0.00,,,0.00,Wunderground v.1.15,2013-11-09 22:07:00,
2013-11-09 14:17:00,50.1,46.7,30.05,SE,132,2.0,4.0,88,0.00,,,0.00,Wunderground v.1.15,2013-11-09 22:17:00,
2013-11-09 14:27:00,49.9,46.5,30.04,SE,132,2.0,2.0,88,0.00,,,0.00,Wunderground v.1.15,2013-11-09 22:27:00,
2013-11-09 14:37:00,49.9,46.8,30.05,SE,131,1.0,4.0,89,0.00,,,0.00,Wunderground v.1.15,2013-11-09 22:37:00,
2013-11-09 14:47:00,49.7,46.6,30.05,SE,132,4.0,5.0,89,0.00,,,0.00,Wunderground v.1.15,2013-11-09 22:47:00,
2013-11-09 14:57:00,49.6,46.5,30.05,SE,132,4.0,4.0,89,0.00,,,0.00,Wunderground v.1.15,2013-11-09 22:57:00,
2013-11-09 15:02:00,49.6,46.8,30.05,SE,132,4.0,4.0,90,0.00,,,0.00,Wunderground v.1.15,2013-11-09 23:02:00,
2013-11-09 15:12:00,49.7,46.6,30.05,SE,133,2.0,2.0,89,0.00,,,0.00,Wunderground v.1.15,2013-11-09 23:12:00,
2013-11-09 15:22:00,49.7,46.6,30.05,SE,132,2.0,2.0,89,0.00,,,0.00,Wunderground v.1.15,2013-11-09 23:22:00,
2013-11-09 15:32:00,50.0,46.9,30.05,SE,132,2.0,2.0,89,0.00,,,0.00,Wunderground v.1.15,2013-11-09 23:32:00,
2013-11-09 15:37:00,50.1,47.3,30.05,SE,132,1.0,2.0,90,0.00,,,0.00,Wunderground v.1.15,2013-11-09 23:37:00,
2013-11-09 15:47:00,50.3,47.5,30.05,SE,132,0.0,0.0,90,0.00,,,0.00,Wunderground v.1.15,2013-11-09 23:47:00,
2013-11-09 15:52:00,50.3,47.5,30.05,ESE,113,0.0,1.0,90,0.00,,,0.00,Wunderground v.1.15,2013-11-09 23:52:00,
2013-11-09 16:02:00,50.1,47.3,30.04,ESE,113,1.0,2.0,90,0.00,,,0.00,Wunderground v.1.15,2013-11-10 00:02:00,
2013-11-09 16:12:00,50.0,47.2,30.04,ESE,113,0.0,0.0,90,0.00,,,0.00,Wunderground v.1.15,2013-11-10 00:12:00,
2013-11-09 16:22:00,50.1,47.3,30.04,ESE,113,0.0,0.0,90,0.00,,,0.00,Wunderground v.1.15,2013-11-10 00:22:00,
2013-11-09 16:27:00,50.2,47.4,30.04,ESE,113,0.0,0.0,90,0.00,,,0.00,Wunderground v.1.15,2013-11-10 00:27:00,
2013-11-09 16:37:00,50.4,47.6,30.04,ESE,113,0.0,0.0,90,0.00,,,0.00,Wunderground v.1.15,2013-11-10 00:37:00,
2013-11-09 16:47:00,50.5,47.4,30.04,ESE,113,0.0,0.0,89,0.00,,,0.00,Wunderground v.1.15,2013-11-10 00:47:00,
2013-11-09 16:57:00,50.4,47.3,30.03,ESE,113,0.0,1.0,89,0.00,,,0.00,Wunderground v.1.15,2013-11-10 00:57:00,
2013-11-09 17:02:00,50.4,47.3,30.03,ESE,113,0.0,2.0,89,0.00,,,0.00,Wunderground v.1.15,2013-11-10 01:02:00,
2013-11-09 17:12:00,50.2,47.1,30.04,ESE,112,1.0,1.0,89,0.00,,,0.00,Wunderground v.1.15,2013-11-10 01:12:00,
2013-11-09 17:22:00,50.0,46.9,30.04,ESE,112,1.0,1.0,89,0.00,,,0.00,Wunderground v.1.15,2013-11-10 01:22:00,
2013-11-09 17:32:00,49.9,46.8,30.03,ESE,103,1.0,1.0,89,0.00,,,0.00,Wunderground v.1.15,2013-11-10 01:32:00,
2013-11-09 17:42:00,49.7,46.6,30.03,ENE,74,3.0,5.0,89,0.00,,,0.00,Wunderground v.1.15,2013-11-10 01:42:00,
2013-11-09 17:47:00,49.6,46.5,30.03,ENE,77,3.0,5.0,89,0.00,,,0.00,Wunderground v.1.15,2013-11-10 01:47:00,
2013-11-09 17:57:00,49.4,46.3,30.03,East,81,4.0,4.0,89,0.00,,,0.00,Wunderground v.1.15,2013-11-10 01:57:00,
2013-11-09 18:02:00,49.4,46.3,30.03,East,79,5.0,5.0,89,0.00,,,0.00,Wunderground v.1.15,2013-11-10 02:02:00,
2013-11-09 18:12:00,49.3,46.2,30.03,East,88,5.0,5.0,89,0.00,,,0.00,Wunderground v.1.15,2013-11-10 02:12:00,
2013-11-09 18:17:00,49.3,46.2,30.03,East,92,6.0,6.0,89,0.00,,,0.00,Wunderground v.1.15,2013-11-10 02:17:00,
2013-11-09 18:27:00,49.2,46.1,30.03,East,85,6.0,8.0,89,0.00,,,0.00,Wunderground v.1.15,2013-11-10 02:27:00,
2013-11-09 18:37:00,49.2,46.1,30.02,East,94,7.0,8.0,89,0.00,,,0.00,Wunderground v.1.15,2013-11-10 02:37:00,
2013-11-09 18:47:00,49.1,46.0,30.03,ENE,78,7.0,7.0,89,0.00,,,0.00,Wunderground v.1.15,2013-11-10 02:47:00,
2013-11-09 18:52:00,49.1,45.7,30.02,East,80,6.0,8.0,88,0.00,,,0.00,Wunderground v.1.15,2013-11-10 02:52:00,
2013-11-09 19:02:00,49.1,45.7,30.02,ENE,76,7.0,7.0,88,0.00,,,0.00,Wunderground v.1.15,2013-11-10 03:02:00,
2013-11-09 19:12:00,49.0,45.6,30.02,East,86,7.0,8.0,88,0.00,,,0.00,Wunderground v.1.15,2013-11-10 03:12:00,
2013-11-09 19:17:00,49.0,45.6,30.02,East,84,7.0,8.0,88,0.00,,,0.00,Wunderground v.1.15,2013-11-10 03:17:00,
2013-11-09 19:27:00,49.0,45.3,30.02,East,85,8.0,8.0,87,0.00,,,0.00,Wunderground v.1.15,2013-11-10 03:27:00,
2013-11-09 19:37:00,49.0,45.3,30.02,East,83,7.0,8.0,87,0.00,,,0.00,Wunderground v.1.15,2013-11-10 03:37:00,
2013-11-09 19:47:00,48.9,45.2,30.02,East,90,7.0,7.0,87,0.00,,,0.00,Wunderground v.1.15,2013-11-10 03:47:00,
2013-11-09 19:57:00,48.9,44.9,30.02,ENE,64,8.0,12.0,86,0.00,,,0.00,Wunderground v.1.15,2013-11-10 03:57:00,
2013-11-09 20:07:00,48.9,44.9,30.02,East,87,7.0,7.0,86,0.00,,,0.00,Wunderground v.1.15,2013-11-10 04:07:00,
2013-11-09 20:12:00,48.9,44.9,30.02,ENE,78,7.0,8.0,86,0.00,,,0.00,Wunderground v.1.15,2013-11-10 04:12:00,
2013-11-09 20:22:00,48.8,44.8,30.02,East,90,8.0,8.0,86,0.00,,,0.00,Wunderground v.1.15,2013-11-10 04:22:00,
2013-11-09 20:32:00,48.8,44.8,30.02,East,91,8.0,9.0,86,0.00,,,0.00,Wunderground v.1.15,2013-11-10 04:32:00,
2013-11-09 20:37:00,48.9,44.9,30.02,ENE,76,8.0,10.0,86,0.00,,,0.00,Wunderground v.1.15,2013-11-10 04:37:00,
2013-11-09 20:47:00,48.9,44.9,30.01,East,94,9.0,15.0,86,0.00,,,0.00,Wunderground v.1.15,2013-11-10 04:47:00,
2013-11-09 20:57:00,48.8,44.8,30.02,East,84,9.0,9.0,86,0.00,,,0.00,Wunderground v.1.15,2013-11-10 04:57:00,
2013-11-09 21:02:00,48.8,44.8,30.02,East,87,8.0,8.0,86,0.00,,,0.00,Wunderground v.1.15,2013-11-10 05:02:00,
2013-11-09 21:12:00,48.9,44.9,30.02,East,101,8.0,8.0,86,0.00,,,0.00,Wunderground v.1.15,2013-11-10 05:12:00,
2013-11-09 21:17:00,48.9,44.6,30.02,East,94,8.0,8.0,85,0.00,,,0.00,Wunderground v.1.15,2013-11-10 05:17:00,
2013-11-09 21:22:00,48.9,44.6,30.02,East,88,9.0,11.0,85,0.00,,,0.00,Wunderground v.1.15,2013-11-10 05:22:00,
2013-11-09 21:32:00,48.9,44.9,30.02,ENE,60,8.0,11.0,86,0.00,,,0.00,Wunderground v.1.15,2013-11-10 05:32:00,
2013-11-09 21:37:00,48.9,44.9,30.02,East,85,8.0,11.0,86,0.00,,,0.00,Wunderground v.1.15,2013-11-10 05:37:00,
2013-11-09 21:47:00,49.0,44.7,30.02,East,82,8.0,11.0,85,0.00,,,0.00,Wunderground v.1.15,2013-11-10 05:47:00,
2013-11-09 21:52:00,49.0,44.7,30.02,East,81,8.0,10.0,85,0.00,,,0.00,Wunderground v.1.15,2013-11-10 05:52:00,
2013-11-09 21:57:00,49.0,44.7,30.02,East,89,9.0,10.0,85,0.00,,,0.00,Wunderground v.1.15,2013-11-10 05:57:00,
2013-11-09 22:07:00,49.0,44.7,30.02,East,94,7.0,9.0,85,0.00,,,0.00,Wunderground v.1.15,2013-11-10 06:07:00,
2013-11-09 22:12:00,49.1,44.8,30.02,ENE,74,6.0,6.0,85,0.00,,,0.00,Wunderground v.1.15,2013-11-10 06:12:00,
2013-11-09 22:22:00,49.1,44.8,30.02,East,80,7.0,7.0,85,0.00,,,0.00,Wunderground v.1.15,2013-11-10 06:22:00,
2013-11-09 22:32:00,49.0,44.7,30.02,East,92,8.0,8.0,85,0.00,,,0.00,Wunderground v.1.15,2013-11-10 06:32:00,
2013-11-09 22:37:00,49.0,44.7,30.02,East,84,7.0,8.0,85,0.00,,,0.00,Wunderground v.1.15,2013-11-10 06:37:00,
2013-11-09 22:47:00,49.0,44.7,30.02,East,79,7.0,7.0,85,0.00,,,0.00,Wunderground v.1.15,2013-11-10 06:47:00,
2013-11-09 22:57:00,49.0,44.7,30.02,East,84,7.0,8.0,85,0.00,,,0.00,Wunderground v.1.15,2013-11-10 06:57:00,
2013-11-09 23:02:00,49.0,44.7,30.02,East,84,8.0,8.0,85,0.00,,,0.00,Wunderground v.1.15,2013-11-10 07:02:00,
2013-11-09 23:12:00,49.1,44.8,30.02,East,83,6.0,8.0,85,0.00,,,0.00,Wunderground v.1.15,2013-11-10 07:12:00,
2013-11-09 23:22:00,49.2,44.9,30.02,East,92,7.0,7.0,85,0.00,,,0.00,Wunderground v.1.15,2013-11-10 07:22:00,
2013-11-09 23:32:00,49.2,44.9,30.02,ENE,78,7.0,7.0,85,0.00,,,0.00,Wunderground v.1.15,2013-11-10 07:32:00,
2013-11-09 23:42:00,49.2,44.9,30.02,East,99,7.0,7.0,85,0.00,,,0.00,Wunderground v.1.15,2013-11-10 07:42:00,
2013-11-09 23:52:00,49.0,44.7,30.02,East,85,7.0,7.0,85,0.00,,,0.00,Wunderground v.1.15,2013-11-10 07:52:00,
2013-11-09 23:57:00,49.0,44.7,30.02,East,86,6.0,7.0,85,0.00,,,0.00,Wunderground v.1.15,2013-11-10 07:57:00,